sensor_id;sensor_type;location;lat;lon;timestamp;temperature;humidity
13713;DHT22;6928;50.546;7.120;2023-07-29T00:01:33;19.39;89.80
13713;DHT22;6928;50.546;7.120;2023-07-29T00:04:00;19.32;89.87
13713;DHT22;6928;50.546;7.120;2023-07-29T00:06:27;19.32;89.86
13713;DHT22;6928;50.546;7.120;2023-07-29T00:08:54;19.31;89.99
13713;DHT22;6928;50.546;7.120;2023-07-29T00:11:20;19.32;89.81
13713;DHT22;6928;50.546;7.120;2023-07-29T00:13:47;19.41;89.71
13713;DHT22;6928;50.546;7.120;2023-07-29T00:16:15;19.45;89.50
13713;DHT22;6928;50.546;7.120;2023-07-29T00:18:44;19.42;89.56
13713;DHT22;6928;50.546;7.120;2023-07-29T00:21:11;19.41;89.65
13713;DHT22;6928;50.546;7.120;2023-07-29T00:23:37;19.42;89.65
13713;DHT22;6928;50.546;7.120;2023-07-29T00:26:04;19.44;89.65
13713;DHT22;6928;50.546;7.120;2023-07-29T00:28:31;19.34;89.70
13713;DHT22;6928;50.546;7.120;2023-07-29T00:30:58;19.39;89.42
13713;DHT22;6928;50.546;7.120;2023-07-29T00:33:25;19.44;89.51
13713;DHT22;6928;50.546;7.120;2023-07-29T00:35:53;19.42;89.46
13713;DHT22;6928;50.546;7.120;2023-07-29T00:38:20;19.42;89.67
13713;DHT22;6928;50.546;7.120;2023-07-29T00:40:47;19.51;89.59
13713;DHT22;6928;50.546;7.120;2023-07-29T00:43:14;19.39;90.11
13713;DHT22;6928;50.546;7.120;2023-07-29T00:45:42;19.39;90.17
13713;DHT22;6928;50.546;7.120;2023-07-29T00:48:09;19.41;90.11
13713;DHT22;6928;50.546;7.120;2023-07-29T00:50:37;19.44;89.98
13713;DHT22;6928;50.546;7.120;2023-07-29T00:53:05;19.47;89.67
13713;DHT22;6928;50.546;7.120;2023-07-29T00:55:32;19.47;90.05
13713;DHT22;6928;50.546;7.120;2023-07-29T00:57:59;19.41;90.22
13713;DHT22;6928;50.546;7.120;2023-07-29T01:00:26;19.48;90.00
13713;DHT22;6928;50.546;7.120;2023-07-29T01:02:53;19.26;90.71
13713;DHT22;6928;50.546;7.120;2023-07-29T01:05:21;19.32;90.25
13713;DHT22;6928;50.546;7.120;2023-07-29T01:07:54;19.31;90.64
13713;DHT22;6928;50.546;7.120;2023-07-29T01:10:33;19.41;90.45
13713;DHT22;6928;50.546;7.120;2023-07-29T01:13:10;19.24;91.03
13713;DHT22;6928;50.546;7.120;2023-07-29T01:15:44;19.27;91.10
13713;DHT22;6928;50.546;7.120;2023-07-29T01:18:18;19.20;90.87
13713;DHT22;6928;50.546;7.120;2023-07-29T01:20:47;19.18;90.89
13713;DHT22;6928;50.546;7.120;2023-07-29T01:23:16;19.21;91.02
13713;DHT22;6928;50.546;7.120;2023-07-29T01:25:44;19.21;90.86
13713;DHT22;6928;50.546;7.120;2023-07-29T01:28:10;19.34;90.74
13713;DHT22;6928;50.546;7.120;2023-07-29T01:30:40;19.31;90.77
13713;DHT22;6928;50.546;7.120;2023-07-29T01:33:15;19.23;91.26
13713;DHT22;6928;50.546;7.120;2023-07-29T01:35:47;19.20;91.09
13713;DHT22;6928;50.546;7.120;2023-07-29T01:38:18;19.17;91.30
13713;DHT22;6928;50.546;7.120;2023-07-29T01:40:49;19.26;91.26
13713;DHT22;6928;50.546;7.120;2023-07-29T01:43:17;19.28;91.02
13713;DHT22;6928;50.546;7.120;2023-07-29T01:45:49;19.15;91.22
13713;DHT22;6928;50.546;7.120;2023-07-29T01:48:16;19.10;91.39
13713;DHT22;6928;50.546;7.120;2023-07-29T01:50:43;19.30;91.07
13713;DHT22;6928;50.546;7.120;2023-07-29T01:53:09;19.06;91.60
13713;DHT22;6928;50.546;7.120;2023-07-29T01:55:36;19.17;91.49
13713;DHT22;6928;50.546;7.120;2023-07-29T01:58:04;19.17;91.40
13713;DHT22;6928;50.546;7.120;2023-07-29T02:00:31;19.14;91.28
13713;DHT22;6928;50.546;7.120;2023-07-29T02:02:58;19.04;91.47
13713;DHT22;6928;50.546;7.120;2023-07-29T02:05:24;19.04;91.69
13713;DHT22;6928;50.546;7.120;2023-07-29T02:07:51;18.91;92.42
13713;DHT22;6928;50.546;7.120;2023-07-29T02:10:18;18.91;92.23
13713;DHT22;6928;50.546;7.120;2023-07-29T02:12:45;19.01;91.92
13713;DHT22;6928;50.546;7.120;2023-07-29T02:15:13;19.14;91.46
13713;DHT22;6928;50.546;7.120;2023-07-29T02:17:41;19.17;91.47
13713;DHT22;6928;50.546;7.120;2023-07-29T02:20:09;19.06;91.72
13713;DHT22;6928;50.546;7.120;2023-07-29T02:22:36;19.07;91.93
13713;DHT22;6928;50.546;7.120;2023-07-29T02:25:04;18.98;92.04
13713;DHT22;6928;50.546;7.120;2023-07-29T02:27:31;19.04;91.80
13713;DHT22;6928;50.546;7.120;2023-07-29T02:29:58;18.93;92.15
13713;DHT22;6928;50.546;7.120;2023-07-29T02:32:27;18.90;92.45
13713;DHT22;6928;50.546;7.120;2023-07-29T02:34:53;18.97;91.94
13713;DHT22;6928;50.546;7.120;2023-07-29T02:37:20;18.80;92.06
13713;DHT22;6928;50.546;7.120;2023-07-29T02:39:47;18.86;92.19
13713;DHT22;6928;50.546;7.120;2023-07-29T02:42:14;18.94;91.94
13713;DHT22;6928;50.546;7.120;2023-07-29T02:44:41;18.97;91.92
13713;DHT22;6928;50.546;7.120;2023-07-29T02:47:07;18.91;91.91
13713;DHT22;6928;50.546;7.120;2023-07-29T02:49:35;18.86;92.12
13713;DHT22;6928;50.546;7.120;2023-07-29T02:52:03;18.81;92.17
13713;DHT22;6928;50.546;7.120;2023-07-29T02:54:30;18.72;92.42
13713;DHT22;6928;50.546;7.120;2023-07-29T02:56:57;18.79;92.27
13713;DHT22;6928;50.546;7.120;2023-07-29T02:59:24;18.76;92.51
13713;DHT22;6928;50.546;7.120;2023-07-29T03:01:51;18.90;92.07
13713;DHT22;6928;50.546;7.120;2023-07-29T03:04:19;18.73;92.24
13713;DHT22;6928;50.546;7.120;2023-07-29T03:06:47;18.87;92.14
13713;DHT22;6928;50.546;7.120;2023-07-29T03:09:14;18.89;91.93
13713;DHT22;6928;50.546;7.120;2023-07-29T03:11:40;18.87;92.02
13713;DHT22;6928;50.546;7.120;2023-07-29T03:14:07;18.89;92.26
13713;DHT22;6928;50.546;7.120;2023-07-29T03:16:34;18.79;92.19
13713;DHT22;6928;50.546;7.120;2023-07-29T03:19:00;18.66;92.71
13713;DHT22;6928;50.546;7.120;2023-07-29T03:21:28;18.68;92.29
13713;DHT22;6928;50.546;7.120;2023-07-29T03:23:56;18.79;92.29
13713;DHT22;6928;50.546;7.120;2023-07-29T03:26:22;18.69;92.41
13713;DHT22;6928;50.546;7.120;2023-07-29T03:28:49;18.70;92.55
13713;DHT22;6928;50.546;7.120;2023-07-29T03:31:16;18.70;92.19
13713;DHT22;6928;50.546;7.120;2023-07-29T03:33:43;18.66;92.38
13713;DHT22;6928;50.546;7.120;2023-07-29T03:36:10;18.62;92.64
13713;DHT22;6928;50.546;7.120;2023-07-29T03:38:36;18.73;92.50
13713;DHT22;6928;50.546;7.120;2023-07-29T03:41:07;18.87;92.10
13713;DHT22;6928;50.546;7.120;2023-07-29T03:43:34;18.93;92.35
13713;DHT22;6928;50.546;7.120;2023-07-29T03:46:01;18.90;92.22
13713;DHT22;6928;50.546;7.120;2023-07-29T03:48:28;19.03;92.40
13713;DHT22;6928;50.546;7.120;2023-07-29T03:50:54;19.01;91.97
13713;DHT22;6928;50.546;7.120;2023-07-29T03:53:21;18.98;92.16
13713;DHT22;6928;50.546;7.120;2023-07-29T03:55:48;18.93;92.49
13713;DHT22;6928;50.546;7.120;2023-07-29T03:58:17;18.94;92.48
13713;DHT22;6928;50.546;7.120;2023-07-29T04:00:43;18.89;92.77
13713;DHT22;6928;50.546;7.120;2023-07-29T04:03:10;18.91;93.07
13713;DHT22;6928;50.546;7.120;2023-07-29T04:05:37;18.89;92.79
13713;DHT22;6928;50.546;7.120;2023-07-29T04:08:04;18.91;92.72
13713;DHT22;6928;50.546;7.120;2023-07-29T04:10:30;19.00;92.72
13713;DHT22;6928;50.546;7.120;2023-07-29T04:12:57;18.90;93.12
13713;DHT22;6928;50.546;7.120;2023-07-29T04:15:26;18.87;93.40
13713;DHT22;6928;50.546;7.120;2023-07-29T04:17:52;18.83;93.58
13713;DHT22;6928;50.546;7.120;2023-07-29T04:20:19;18.84;93.54
13713;DHT22;6928;50.546;7.120;2023-07-29T04:22:46;18.84;93.36
13713;DHT22;6928;50.546;7.120;2023-07-29T04:25:13;18.96;93.14
13713;DHT22;6928;50.546;7.120;2023-07-29T04:27:39;18.87;93.19
13713;DHT22;6928;50.546;7.120;2023-07-29T04:30:07;18.89;93.16
13713;DHT22;6928;50.546;7.120;2023-07-29T04:32:35;18.94;92.96
13713;DHT22;6928;50.546;7.120;2023-07-29T04:35:03;18.91;93.07
13713;DHT22;6928;50.546;7.120;2023-07-29T04:37:30;18.86;93.39
13713;DHT22;6928;50.546;7.120;2023-07-29T04:39:57;18.83;93.50
13713;DHT22;6928;50.546;7.120;2023-07-29T04:42:23;18.86;93.67
13713;DHT22;6928;50.546;7.120;2023-07-29T04:44:50;18.83;93.62
13713;DHT22;6928;50.546;7.120;2023-07-29T04:47:17;18.76;93.76
13713;DHT22;6928;50.546;7.120;2023-07-29T04:49:45;18.86;93.65
13713;DHT22;6928;50.546;7.120;2023-07-29T04:52:12;18.86;93.49
13713;DHT22;6928;50.546;7.120;2023-07-29T04:54:40;18.80;93.64
13713;DHT22;6928;50.546;7.120;2023-07-29T04:57:07;18.76;93.75
13713;DHT22;6928;50.546;7.120;2023-07-29T04:59:33;18.83;93.62
13713;DHT22;6928;50.546;7.120;2023-07-29T05:02:00;18.91;93.47
13713;DHT22;6928;50.546;7.120;2023-07-29T05:04:27;18.87;93.64
13713;DHT22;6928;50.546;7.120;2023-07-29T05:06:55;18.75;94.51
13713;DHT22;6928;50.546;7.120;2023-07-29T05:09:22;18.66;94.83
13713;DHT22;6928;50.546;7.120;2023-07-29T05:11:49;18.60;95.03
13713;DHT22;6928;50.546;7.120;2023-07-29T05:14:17;18.70;94.68
13713;DHT22;6928;50.546;7.120;2023-07-29T05:16:44;18.73;94.48
13713;DHT22;6928;50.546;7.120;2023-07-29T05:19:11;18.75;94.48
13713;DHT22;6928;50.546;7.120;2023-07-29T05:21:39;18.77;94.35
13713;DHT22;6928;50.546;7.120;2023-07-29T05:24:08;18.77;94.33
13713;DHT22;6928;50.546;7.120;2023-07-29T05:26:34;18.72;94.32
13713;DHT22;6928;50.546;7.120;2023-07-29T05:29:01;18.68;94.60
13713;DHT22;6928;50.546;7.120;2023-07-29T05:31:29;18.72;94.56
13713;DHT22;6928;50.546;7.120;2023-07-29T05:33:56;18.80;94.41
13713;DHT22;6928;50.546;7.120;2023-07-29T05:36:23;18.89;94.18
13713;DHT22;6928;50.546;7.120;2023-07-29T05:38:50;18.89;93.90
13713;DHT22;6928;50.546;7.120;2023-07-29T05:41:19;18.76;94.42
13713;DHT22;6928;50.546;7.120;2023-07-29T05:43:46;18.84;94.72
13713;DHT22;6928;50.546;7.120;2023-07-29T05:46:13;18.86;94.38
13713;DHT22;6928;50.546;7.120;2023-07-29T05:48:39;18.91;94.13
13713;DHT22;6928;50.546;7.120;2023-07-29T05:51:06;18.96;93.99
13713;DHT22;6928;50.546;7.120;2023-07-29T05:53:34;18.87;93.99
13713;DHT22;6928;50.546;7.120;2023-07-29T05:56:01;18.76;94.37
13713;DHT22;6928;50.546;7.120;2023-07-29T05:58:29;18.77;94.21
13713;DHT22;6928;50.546;7.120;2023-07-29T06:00:56;18.73;94.40
13713;DHT22;6928;50.546;7.120;2023-07-29T06:03:23;18.89;93.64
13713;DHT22;6928;50.546;7.120;2023-07-29T06:05:50;18.94;93.63
13713;DHT22;6928;50.546;7.120;2023-07-29T06:08:17;19.06;93.63
13713;DHT22;6928;50.546;7.120;2023-07-29T06:10:43;18.94;93.89
13713;DHT22;6928;50.546;7.120;2023-07-29T06:13:10;19.00;93.75
13713;DHT22;6928;50.546;7.120;2023-07-29T06:15:38;19.11;93.72
13713;DHT22;6928;50.546;7.120;2023-07-29T06:18:05;19.07;93.60
13713;DHT22;6928;50.546;7.120;2023-07-29T06:20:32;19.08;93.72
13713;DHT22;6928;50.546;7.120;2023-07-29T06:22:59;19.17;93.52
13713;DHT22;6928;50.546;7.120;2023-07-29T06:25:26;19.18;93.57
13713;DHT22;6928;50.546;7.120;2023-07-29T06:27:52;19.12;93.54
13713;DHT22;6928;50.546;7.120;2023-07-29T06:30:19;19.18;93.55
13713;DHT22;6928;50.546;7.120;2023-07-29T06:32:47;19.12;93.73
13713;DHT22;6928;50.546;7.120;2023-07-29T06:35:14;19.11;93.63
13713;DHT22;6928;50.546;7.120;2023-07-29T06:37:41;19.17;93.56
13713;DHT22;6928;50.546;7.120;2023-07-29T06:40:08;19.15;93.63
13713;DHT22;6928;50.546;7.120;2023-07-29T06:42:35;19.15;93.43
13713;DHT22;6928;50.546;7.120;2023-07-29T06:45:04;19.18;93.73
13713;DHT22;6928;50.546;7.120;2023-07-29T06:47:31;19.17;93.59
13713;DHT22;6928;50.546;7.120;2023-07-29T06:49:59;19.11;93.69
13713;DHT22;6928;50.546;7.120;2023-07-29T06:52:26;19.27;93.69
13713;DHT22;6928;50.546;7.120;2023-07-29T06:54:53;19.31;93.63
13713;DHT22;6928;50.546;7.120;2023-07-29T06:57:19;19.24;93.62
13713;DHT22;6928;50.546;7.120;2023-07-29T06:59:46;19.45;93.38
13713;DHT22;6928;50.546;7.120;2023-07-29T07:02:13;19.38;93.46
13713;DHT22;6928;50.546;7.120;2023-07-29T07:04:40;19.38;93.35
13713;DHT22;6928;50.546;7.120;2023-07-29T07:07:09;19.49;92.90
13713;DHT22;6928;50.546;7.120;2023-07-29T07:09:36;19.66;92.68
13713;DHT22;6928;50.546;7.120;2023-07-29T07:12:03;19.70;92.48
13713;DHT22;6928;50.546;7.120;2023-07-29T07:14:30;19.83;92.03
13713;DHT22;6928;50.546;7.120;2023-07-29T07:16:57;19.82;91.41
13713;DHT22;6928;50.546;7.120;2023-07-29T07:19:23;19.86;91.11
13713;DHT22;6928;50.546;7.120;2023-07-29T07:21:50;20.02;91.16
13713;DHT22;6928;50.546;7.120;2023-07-29T07:24:19;20.13;91.06
13713;DHT22;6928;50.546;7.120;2023-07-29T07:26:46;20.14;90.43
13713;DHT22;6928;50.546;7.120;2023-07-29T07:29:13;20.17;89.86
13713;DHT22;6928;50.546;7.120;2023-07-29T07:31:39;20.41;88.89
13713;DHT22;6928;50.546;7.120;2023-07-29T07:34:06;20.54;89.04
13713;DHT22;6928;50.546;7.120;2023-07-29T07:36:33;20.78;88.69
13713;DHT22;6928;50.546;7.120;2023-07-29T07:39:00;20.84;88.20
13713;DHT22;6928;50.546;7.120;2023-07-29T07:41:28;20.74;86.88
13713;DHT22;6928;50.546;7.120;2023-07-29T07:43:55;20.69;85.13
13713;DHT22;6928;50.546;7.120;2023-07-29T07:46:22;20.69;86.49
13713;DHT22;6928;50.546;7.120;2023-07-29T07:48:49;20.67;86.79
13713;DHT22;6928;50.546;7.120;2023-07-29T07:51:15;20.54;85.08
13713;DHT22;6928;50.546;7.120;2023-07-29T07:53:42;20.54;84.05
13713;DHT22;6928;50.546;7.120;2023-07-29T07:56:09;20.57;83.61
13713;DHT22;6928;50.546;7.120;2023-07-29T07:58:38;20.64;83.65
13713;DHT22;6928;50.546;7.120;2023-07-29T08:01:05;20.86;82.63
13713;DHT22;6928;50.546;7.120;2023-07-29T08:03:33;20.74;82.76
13713;DHT22;6928;50.546;7.120;2023-07-29T08:06:00;20.96;82.63
13713;DHT22;6928;50.546;7.120;2023-07-29T08:08:27;20.95;83.09
13713;DHT22;6928;50.546;7.120;2023-07-29T08:10:57;20.72;81.59
13713;DHT22;6928;50.546;7.120;2023-07-29T08:13:24;20.59;81.76
13713;DHT22;6928;50.546;7.120;2023-07-29T08:15:53;20.61;81.86
13713;DHT22;6928;50.546;7.120;2023-07-29T08:18:20;20.61;81.39
13713;DHT22;6928;50.546;7.120;2023-07-29T08:20:53;20.68;82.12
13713;DHT22;6928;50.546;7.120;2023-07-29T08:23:24;20.65;82.26
13713;DHT22;6928;50.546;7.120;2023-07-29T08:25:53;20.69;82.54
13713;DHT22;6928;50.546;7.120;2023-07-29T08:28:21;20.61;82.40
13713;DHT22;6928;50.546;7.120;2023-07-29T08:30:48;20.64;82.36
13713;DHT22;6928;50.546;7.120;2023-07-29T08:33:16;20.67;82.53
13713;DHT22;6928;50.546;7.120;2023-07-29T08:35:43;20.67;82.56
13713;DHT22;6928;50.546;7.120;2023-07-29T08:38:10;20.64;82.67
13713;DHT22;6928;50.546;7.120;2023-07-29T08:40:42;20.65;83.10
13713;DHT22;6928;50.546;7.120;2023-07-29T08:43:09;20.59;82.96
13713;DHT22;6928;50.546;7.120;2023-07-29T08:45:38;20.48;82.22
13713;DHT22;6928;50.546;7.120;2023-07-29T08:48:09;20.41;82.12
13713;DHT22;6928;50.546;7.120;2023-07-29T08:50:38;20.38;82.51
13713;DHT22;6928;50.546;7.120;2023-07-29T08:53:05;20.37;83.27
13713;DHT22;6928;50.546;7.120;2023-07-29T08:55:32;20.38;84.17
13713;DHT22;6928;50.546;7.120;2023-07-29T08:58:00;20.33;84.47
13713;DHT22;6928;50.546;7.120;2023-07-29T09:00:27;20.31;85.00
13713;DHT22;6928;50.546;7.120;2023-07-29T09:02:55;20.26;84.63
13713;DHT22;6928;50.546;7.120;2023-07-29T09:05:23;20.20;84.41
13713;DHT22;6928;50.546;7.120;2023-07-29T09:07:51;20.34;84.80
13713;DHT22;6928;50.546;7.120;2023-07-29T09:10:22;20.38;85.31
13713;DHT22;6928;50.546;7.120;2023-07-29T09:12:49;20.43;84.01
13713;DHT22;6928;50.546;7.120;2023-07-29T09:15:27;20.54;83.71
13713;DHT22;6928;50.546;7.120;2023-07-29T09:17:56;20.44;81.07
13713;DHT22;6928;50.546;7.120;2023-07-29T09:20:26;20.47;79.81
13713;DHT22;6928;50.546;7.120;2023-07-29T09:22:58;20.44;80.34
13713;DHT22;6928;50.546;7.120;2023-07-29T09:25:26;20.54;81.67
13713;DHT22;6928;50.546;7.120;2023-07-29T09:27:59;20.49;80.21
13713;DHT22;6928;50.546;7.120;2023-07-29T09:30:26;20.51;79.93
13713;DHT22;6928;50.546;7.120;2023-07-29T09:32:55;20.48;79.74
13713;DHT22;6928;50.546;7.120;2023-07-29T09:35:23;20.52;81.15
13713;DHT22;6928;50.546;7.120;2023-07-29T09:37:50;20.51;81.60
13713;DHT22;6928;50.546;7.120;2023-07-29T09:40:19;20.58;80.93
13713;DHT22;6928;50.546;7.120;2023-07-29T09:42:49;20.57;79.42
13713;DHT22;6928;50.546;7.120;2023-07-29T09:45:24;20.48;79.94
13713;DHT22;6928;50.546;7.120;2023-07-29T09:47:52;20.48;80.08
13713;DHT22;6928;50.546;7.120;2023-07-29T09:50:23;20.45;78.68
13713;DHT22;6928;50.546;7.120;2023-07-29T09:52:52;20.54;79.33
13713;DHT22;6928;50.546;7.120;2023-07-29T09:55:22;20.58;78.60
13713;DHT22;6928;50.546;7.120;2023-07-29T09:57:54;20.65;78.43
13713;DHT22;6928;50.546;7.120;2023-07-29T10:00:22;20.78;77.95
13713;DHT22;6928;50.546;7.120;2023-07-29T10:02:49;20.78;78.21
13713;DHT22;6928;50.546;7.120;2023-07-29T10:05:17;20.85;78.40
13713;DHT22;6928;50.546;7.120;2023-07-29T10:07:44;20.92;76.67
13713;DHT22;6928;50.546;7.120;2023-07-29T10:10:13;21.13;76.01
13713;DHT22;6928;50.546;7.120;2023-07-29T10:12:41;21.51;74.79
13713;DHT22;6928;50.546;7.120;2023-07-29T10:15:10;21.71;74.15
13713;DHT22;6928;50.546;7.120;2023-07-29T10:17:38;21.67;74.72
13713;DHT22;6928;50.546;7.120;2023-07-29T10:20:07;21.64;73.72
13713;DHT22;6928;50.546;7.120;2023-07-29T10:22:38;21.71;73.75
13713;DHT22;6928;50.546;7.120;2023-07-29T10:25:08;21.73;72.58
13713;DHT22;6928;50.546;7.120;2023-07-29T10:27:46;21.60;71.51
13713;DHT22;6928;50.546;7.120;2023-07-29T10:30:14;21.81;71.76
13713;DHT22;6928;50.546;7.120;2023-07-29T10:32:42;21.77;73.18
13713;DHT22;6928;50.546;7.120;2023-07-29T10:35:11;21.84;72.62
13713;DHT22;6928;50.546;7.120;2023-07-29T10:37:39;21.88;72.01
13713;DHT22;6928;50.546;7.120;2023-07-29T10:40:09;21.84;72.16
13713;DHT22;6928;50.546;7.120;2023-07-29T10:42:36;21.97;72.59
13713;DHT22;6928;50.546;7.120;2023-07-29T10:45:20;21.94;71.46
13713;DHT22;6928;50.546;7.120;2023-07-29T10:47:48;21.84;69.90
13713;DHT22;6928;50.546;7.120;2023-07-29T10:50:18;21.82;71.99
13713;DHT22;6928;50.546;7.120;2023-07-29T10:52:50;21.78;72.44
13713;DHT22;6928;50.546;7.120;2023-07-29T10:55:26;21.68;74.07
13713;DHT22;6928;50.546;7.120;2023-07-29T10:57:54;21.79;73.07
13713;DHT22;6928;50.546;7.120;2023-07-29T11:00:31;21.64;73.29
13713;DHT22;6928;50.546;7.120;2023-07-29T11:03:00;21.64;74.66
13713;DHT22;6928;50.546;7.120;2023-07-29T11:05:49;21.29;74.85
13713;DHT22;6928;50.546;7.120;2023-07-29T11:08:23;20.91;76.45
13713;DHT22;6928;50.546;7.120;2023-07-29T11:11:07;20.92;77.65
13713;DHT22;6928;50.546;7.120;2023-07-29T11:13:36;20.65;78.79
13713;DHT22;6928;50.546;7.120;2023-07-29T11:16:05;20.67;79.49
13713;DHT22;6928;50.546;7.120;2023-07-29T11:18:33;20.48;80.21
13713;DHT22;6928;50.546;7.120;2023-07-29T11:21:01;20.54;81.85
13713;DHT22;6928;50.546;7.120;2023-07-29T11:23:31;20.28;83.06
13713;DHT22;6928;50.546;7.120;2023-07-29T11:25:58;20.17;84.08
13713;DHT22;6928;50.546;7.120;2023-07-29T11:28:26;19.97;84.76
13713;DHT22;6928;50.546;7.120;2023-07-29T11:30:53;20.13;85.06
13713;DHT22;6928;50.546;7.120;2023-07-29T11:33:24;20.09;85.20
13713;DHT22;6928;50.546;7.120;2023-07-29T11:35:51;20.00;85.22
13713;DHT22;6928;50.546;7.120;2023-07-29T11:38:21;20.26;85.28
13713;DHT22;6928;50.546;7.120;2023-07-29T11:40:56;20.12;85.30
13713;DHT22;6928;50.546;7.120;2023-07-29T11:43:23;20.40;84.39
13713;DHT22;6928;50.546;7.120;2023-07-29T11:45:51;20.41;84.38
13713;DHT22;6928;50.546;7.120;2023-07-29T11:48:18;20.76;83.61
13713;DHT22;6928;50.546;7.120;2023-07-29T11:50:47;20.75;82.46
13713;DHT22;6928;50.546;7.120;2023-07-29T11:53:14;21.12;81.30
13713;DHT22;6928;50.546;7.120;2023-07-29T11:55:41;21.47;80.83
13713;DHT22;6928;50.546;7.120;2023-07-29T11:58:08;21.75;78.66
13713;DHT22;6928;50.546;7.120;2023-07-29T12:00:35;21.91;78.71
13713;DHT22;6928;50.546;7.120;2023-07-29T12:03:02;21.79;75.98
13713;DHT22;6928;50.546;7.120;2023-07-29T12:05:29;22.01;76.81
13713;DHT22;6928;50.546;7.120;2023-07-29T12:07:58;22.01;76.89
13713;DHT22;6928;50.546;7.120;2023-07-29T12:10:25;21.82;76.37
13713;DHT22;6928;50.546;7.120;2023-07-29T12:12:52;22.18;76.79
13713;DHT22;6928;50.546;7.120;2023-07-29T12:15:24;22.25;75.63
13713;DHT22;6928;50.546;7.120;2023-07-29T12:17:54;22.73;76.72
13713;DHT22;6928;50.546;7.120;2023-07-29T12:20:22;22.62;75.39
13713;DHT22;6928;50.546;7.120;2023-07-29T12:22:54;22.44;75.96
13713;DHT22;6928;50.546;7.120;2023-07-29T12:25:22;22.88;76.02
13713;DHT22;6928;50.546;7.120;2023-07-29T12:27:49;22.59;75.98
13713;DHT22;6928;50.546;7.120;2023-07-29T12:30:20;23.27;74.76
13713;DHT22;6928;50.546;7.120;2023-07-29T12:32:48;23.15;74.68
13713;DHT22;6928;50.546;7.120;2023-07-29T12:35:15;23.62;72.48
13713;DHT22;6928;50.546;7.120;2023-07-29T12:37:42;23.08;73.42
13713;DHT22;6928;50.546;7.120;2023-07-29T12:40:22;22.98;74.76
13713;DHT22;6928;50.546;7.120;2023-07-29T12:42:50;22.87;74.88
13713;DHT22;6928;50.546;7.120;2023-07-29T12:45:17;23.01;74.21
13713;DHT22;6928;50.546;7.120;2023-07-29T12:47:44;23.14;74.61
13713;DHT22;6928;50.546;7.120;2023-07-29T12:50:11;23.18;74.09
13713;DHT22;6928;50.546;7.120;2023-07-29T12:52:38;23.22;73.58
13713;DHT22;6928;50.546;7.120;2023-07-29T12:55:06;23.76;72.34
13713;DHT22;6928;50.546;7.120;2023-07-29T12:57:41;23.55;74.00
13713;DHT22;6928;50.546;7.120;2023-07-29T13:00:10;23.55;72.65
13713;DHT22;6928;50.546;7.120;2023-07-29T13:02:37;24.03;72.59
13713;DHT22;6928;50.546;7.120;2023-07-29T13:05:05;24.31;71.29
13713;DHT22;6928;50.546;7.120;2023-07-29T13:07:33;24.04;71.20
13713;DHT22;6928;50.546;7.120;2023-07-29T13:10:00;24.33;72.00
13713;DHT22;6928;50.546;7.120;2023-07-29T13:12:27;24.07;70.61
13713;DHT22;6928;50.546;7.120;2023-07-29T13:14:55;24.13;71.63
13713;DHT22;6928;50.546;7.120;2023-07-29T13:17:23;23.90;72.37
13713;DHT22;6928;50.546;7.120;2023-07-29T13:19:49;23.49;74.39
13713;DHT22;6928;50.546;7.120;2023-07-29T13:22:16;23.46;74.59
13713;DHT22;6928;50.546;7.120;2023-07-29T13:24:43;23.42;74.11
13713;DHT22;6928;50.546;7.120;2023-07-29T13:27:10;23.60;73.62
13713;DHT22;6928;50.546;7.120;2023-07-29T13:29:37;23.46;74.20
13713;DHT22;6928;50.546;7.120;2023-07-29T13:32:07;23.34;73.92
13713;DHT22;6928;50.546;7.120;2023-07-29T13:34:34;23.38;74.16
13713;DHT22;6928;50.546;7.120;2023-07-29T13:37:01;23.35;73.70
13713;DHT22;6928;50.546;7.120;2023-07-29T13:39:28;23.15;74.07
13713;DHT22;6928;50.546;7.120;2023-07-29T13:41:54;23.07;73.92
13713;DHT22;6928;50.546;7.120;2023-07-29T13:44:22;23.35;73.98
13713;DHT22;6928;50.546;7.120;2023-07-29T13:46:49;23.76;72.57
13713;DHT22;6928;50.546;7.120;2023-07-29T13:49:17;23.50;72.85
13713;DHT22;6928;50.546;7.120;2023-07-29T13:51:43;23.35;73.55
13713;DHT22;6928;50.546;7.120;2023-07-29T13:54:10;23.35;72.50
13713;DHT22;6928;50.546;7.120;2023-07-29T13:56:37;23.46;72.38
13713;DHT22;6928;50.546;7.120;2023-07-29T13:59:04;23.31;73.10
13713;DHT22;6928;50.546;7.120;2023-07-29T14:01:30;23.27;73.53
13713;DHT22;6928;50.546;7.120;2023-07-29T14:03:57;23.10;74.20
13713;DHT22;6928;50.546;7.120;2023-07-29T14:06:25;23.02;73.31
13713;DHT22;6928;50.546;7.120;2023-07-29T14:08:52;23.12;74.20
13713;DHT22;6928;50.546;7.120;2023-07-29T14:11:19;23.38;75.05
13713;DHT22;6928;50.546;7.120;2023-07-29T14:13:45;23.59;73.62
13713;DHT22;6928;50.546;7.120;2023-07-29T14:16:12;23.45;74.21
13713;DHT22;6928;50.546;7.120;2023-07-29T14:18:39;23.15;74.35
13713;DHT22;6928;50.546;7.120;2023-07-29T14:21:06;23.08;74.79
13713;DHT22;6928;50.546;7.120;2023-07-29T14:23:34;23.28;74.76
13713;DHT22;6928;50.546;7.120;2023-07-29T14:26:01;23.41;74.35
13713;DHT22;6928;50.546;7.120;2023-07-29T14:28:27;23.31;73.73
13713;DHT22;6928;50.546;7.120;2023-07-29T14:30:55;23.28;74.49
13713;DHT22;6928;50.546;7.120;2023-07-29T14:33:22;23.43;74.28
13713;DHT22;6928;50.546;7.120;2023-07-29T14:35:49;23.25;75.41
13713;DHT22;6928;50.546;7.120;2023-07-29T14:38:16;23.02;74.33
13713;DHT22;6928;50.546;7.120;2023-07-29T14:40:47;23.15;75.28
13713;DHT22;6928;50.546;7.120;2023-07-29T14:43:14;23.22;75.44
13713;DHT22;6928;50.546;7.120;2023-07-29T14:45:40;23.20;75.67
13713;DHT22;6928;50.546;7.120;2023-07-29T14:48:09;23.21;75.07
13713;DHT22;6928;50.546;7.120;2023-07-29T14:50:36;23.34;74.53
13713;DHT22;6928;50.546;7.120;2023-07-29T14:53:03;22.71;75.14
13713;DHT22;6928;50.546;7.120;2023-07-29T14:55:30;22.98;75.79
13713;DHT22;6928;50.546;7.120;2023-07-29T14:57:58;22.98;75.68
13713;DHT22;6928;50.546;7.120;2023-07-29T15:00:25;23.01;75.53
13713;DHT22;6928;50.546;7.120;2023-07-29T15:02:52;23.11;74.87
13713;DHT22;6928;50.546;7.120;2023-07-29T15:05:18;23.02;74.58
13713;DHT22;6928;50.546;7.120;2023-07-29T15:07:46;23.17;75.27
13713;DHT22;6928;50.546;7.120;2023-07-29T15:10:14;23.22;75.03
13713;DHT22;6928;50.546;7.120;2023-07-29T15:12:42;23.21;74.42
13713;DHT22;6928;50.546;7.120;2023-07-29T15:15:11;23.14;74.50
13713;DHT22;6928;50.546;7.120;2023-07-29T15:17:38;23.12;75.66
13713;DHT22;6928;50.546;7.120;2023-07-29T15:20:05;23.18;74.88
13713;DHT22;6928;50.546;7.120;2023-07-29T15:22:33;23.29;75.30
13713;DHT22;6928;50.546;7.120;2023-07-29T15:25:00;23.17;75.22
13713;DHT22;6928;50.546;7.120;2023-07-29T15:27:27;23.05;75.96
13713;DHT22;6928;50.546;7.120;2023-07-29T15:29:55;23.05;76.01
13713;DHT22;6928;50.546;7.120;2023-07-29T15:32:23;23.21;75.46
13713;DHT22;6928;50.546;7.120;2023-07-29T15:34:50;23.17;75.21
13713;DHT22;6928;50.546;7.120;2023-07-29T15:37:17;23.34;74.46
13713;DHT22;6928;50.546;7.120;2023-07-29T15:39:44;23.20;75.48
13713;DHT22;6928;50.546;7.120;2023-07-29T15:42:11;23.07;76.76
13713;DHT22;6928;50.546;7.120;2023-07-29T15:44:37;23.02;76.41
13713;DHT22;6928;50.546;7.120;2023-07-29T15:47:05;23.01;76.85
13713;DHT22;6928;50.546;7.120;2023-07-29T15:49:33;22.90;76.71